• Join FlightAware (Why Join?)
  • Login
  • US Flag 
08:33AM EDT


 

Airport Tracker/Info


-or-


 

Live Flight TrackerFlight Track Log ✈ SWA2433 ✈ 26-Apr-2013 ✈ KSAT - KDAL

Flight Track Log - Related Links

Times and Time Zones

All times are in EDT time to prevent confusion due to time zone crossing. See the SWA2433 flight status page for this flight to view local times or setup timezone preferences in your user account.

Time Position Orientation Groundspeed Altitude Reporting Facility
EDT Latitude Longitude Course Direction KTS MPH feet Rate Location/Type
04:19PM 29.5833 -98.3706 61° Northeast 221 254 4,400  Level Houston Center
04:20PM 29.6178 -98.2914 63° Northeast 293 337 7,100 3,240 Climbing Houston Center
04:21PM 29.7067 -98.2881 North 304 350 11,200 3,000 Climbing Houston Center
04:22PM 29.7992 -98.3136 347° North 345 397 13,400 2,520 Climbing Houston Center
04:23PM 29.9094 -98.3428 347° North 377 434 16,500 3,060 Climbing Houston Center
04:24PM 30.0153 -98.3686 348° North 388 447 19,800 3,120 Climbing Houston Center
04:25PM 30.1319 -98.3908 351° North 397 457 23,000 2,580 Climbing Houston Center
04:26PM 30.2469 -98.3725 North 414 476 25,200 2,160 Climbing Houston Center
04:27PM 30.3658 -98.3561 North 431 496 27,600 2,160 Climbing Houston Center
04:28PM 30.4872 -98.3378 North 433 498 29,700 1,620 Climbing Houston Center
04:29PM 30.6078 -98.3192 North 432 497 31,000 600 Climbing Houston Center
04:30PM 30.7306 -98.3019 North 435 501 31,000  Level Houston Center
04:31PM 30.8514 -98.2839 North 433 498 31,000  Level Houston Center
04:32PM 30.9911 -98.2625 North 431 496 31,000 -240 Level Houston Center
04:33PM 31.1100 -98.2364 11° North 432 497 30,500 -720 Descending Houston Center
04:34PM 31.2275 -98.1981 16° North 425 489 29,500 -780 Descending Fort Worth Center
04:35PM 31.3425 -98.1600 16° North 425 489 29,000 -300 Descending Fort Worth Center
04:36PM 31.4597 -98.1100 20° North 425 489 29,000  Level Fort Worth Center
04:37PM 31.5728 -98.0450 26° Northeast 440 506 29,000 -600 Level Fort Worth Center
04:38PM 31.6858 -97.9747 28° Northeast 452 520 27,900 -1,920 Descending Fort Worth Center
04:39PM 31.7864 -97.9144 27° Northeast 450 518 25,200 -2,880 Descending Fort Worth Center
04:40PM 31.9036 -97.8464 26° Northeast 458 527 22,200 -2,880 Descending Fort Worth Center
04:41PM 32.0269 -97.7761 26° Northeast 449 517 19,500 -2,460 Descending Fort Worth Center
04:42PM 32.1231 -97.7175 27° Northeast 439 505 17,300 -2,520 Descending Fort Worth Center
04:43PM 32.2381 -97.6467 28° Northeast 427 491 14,500 -2,580 Descending Fort Worth Center
04:44PM 32.3300 -97.5903 27° Northeast 421 484 12,200 -1,680 Descending Fort Worth Center
04:45PM 32.4344 -97.5292 26° Northeast 398 458 11,200 -600 Descending Fort Worth Center
04:46PM 32.5014 -97.4675 38° Northeast 354 407 11,000 -120 Descending Fort Worth Center
04:47PM 32.5725 -97.3864 44° Northeast 320 368 11,000  Level Fort Worth Center
04:48PM 32.6286 -97.3172 46° Northeast 315 362 11,000  Level Fort Worth Center
04:49PM 32.6956 -97.2333 47° Northeast 310 357 11,000  Level Fort Worth Center
04:50PM 32.7517 -97.1739 42° Northeast 305 351 11,000 -420 Level Fort Worth Center
04:51PM 32.8269 -97.1761 359° North 259 298 10,200 -1,080 Descending Fort Worth Center
04:52PM 32.8958 -97.1758 360° North 245 282 8,900 -1,320 Descending Fort Worth Center
04:53PM 32.9167 -97.1167 67° East 236 272 7,800 -1,260 Descending Dallas / Fort Worth TRACON
04:54PM 32.9333 -97.0500 73° East 217 250 6,600 -1,320 Descending Dallas / Fort Worth TRACON
04:55PM 32.9333 -97.0000 90° East 179 206 5,400 -1,560 Descending Dallas / Fort Worth TRACON
04:56PM 32.9333 -96.9500 90° East 143 165 3,700 -1,740 Descending Dallas / Fort Worth TRACON
04:57PM 32.9000 -96.9167 140° Southeast 134 154 2,000 -1,320 Descending Dallas / Fort Worth TRACON
04:58PM 32.8833 -96.8833 121° Southeast 131 151 1,100 -900 Descending Dallas / Fort Worth TRACON
05:00PM 32.8471 -96.8518 108° East  Level Estimated
05:07PM 32.8471 -96.8518 108° East  Level Estimated